Belgrade, MT (59714)

3:02 AM MDT on October 01, 2014 (GMT -0600)
Sheepshank Drive | Change Station
CLOSE
Current Station
Personal Weather Station
Location: W of Belgrade, MT
Elevation: 4420 ft
Nearby Weather Stations

Elev 4420 ft 45.78 °N, 111.24 °W | Updated 6 seconds ago

Partly Cloudy
Partly Cloudy
35.6 °F
Feels Like 32 °F
N
3.8
Wind Variable Wind from NNE
Gusts 3.8 mph

Today
High -- | Low -- °F
--% Chance of Precip.
Yesterday
High -- | Low -- °F
Precip. -- in
7:23 AM 7:04 PM
Waxing Crescent, 45% visible
Pressure 29.96 in
Visibility 10.0 miles
Clouds Few 5500 ft
Windchill 32 °F
Dew Point 32 °F
Humidity 87%
Rainfall 0.00 in
Snow Depth Not available.
UV 0 out of 12
Pollen 3.80 out of 12
Air Quality Not available.
Flu Activity Not available.
METAR KBZN 010756Z AUTO 15004KT 10SM FEW055 02/00 A2996 RMK AO2 SLP146 T00220000

More Conditions Fewer Conditions

Pressure 29.96 in
Visibility 10.0 miles
Clouds Few 5500 ft
Windchill 32 °F
Dew Point 32 °F
Humidity 87%
Rainfall 0.00 in
Snow Depth Not available.
UV 0 out of 12
Pollen 3.80 out of 12
Air Quality Not available.
Flu Activity Not available.
METAR KBZN 010756Z AUTO 15004KT 10SM FEW055 02/00 A2996 RMK AO2 SLP146 T00220000

More Conditions Fewer Conditions

10-Day Weather Forecast

Almanac

Astronomy

Oct. 01, 2014 Rise Set
Actual Time 7:23 AM MDT 7:04 PM MDT
Civil Twilight 6:53 AM MDT 7:34 PM MDT
Nautical Twilight 6:18 AM MDT 8:08 PM MDT
Astronomical Twilight 5:43 AM MDT 8:43 PM MDT
Moon 2:40 PM MDT No Moon Set
Length of Visible Light 12h 40m
Length of Day
11h 41m
Tomorrow will be 3m 12s shorter.
Waxing Crescent, 45% of the Moon is Illuminated
Today
Waxing Crescent
Oct 1
First Quarter
Oct 8
Full
Oct 15
Last Quarter
Oct 23
New

Today's Extremes

State Highs State Lows

Community

WunderPhotos

Upload Photos

1,757,902 photos uploaded!

Nearby

Snow Depth

Station Depth Elevation
Wood Creek 2 in 5960 ft
Dupuyer Creek 0 in 5750 ft
West Yellowstone 0 in 6700 ft
Shower Falls 0 in 8100 ft
Crystal Lake 1 in 6050 ft

Earthquake Activity

City Distance Mag. Time & Date
No recent earthquake activity has been reported nearby.
Minimum magnitude displayed is 2.5.

Coastal Water Temperatures

Place Temperature
No Stations Reporting

Nearby Weather Stations